Terminal Aerodrome Forecast
Issued by NWS Charleston, WV

Current Version | Previous Version | Graphics & Text | Print | Product List | Glossary On
Versions: 1 2 3 4 5 6 7 8 9 10 11 12 13 14 15 16 17 18 19 20 21 22 23 24 25 26 27 28 29 30 31 32 33
334
FTUS41 KRLX 200606 CCA
TAFPKB
TAF COR
KPKB 200606Z 2006/2106 00000KT 1/2SM FG BKN002
     FM200900 00000KT 1/4SM FG VV001
     FM201200 00000KT 2SM BR BKN002
     FM201300 00000KT P6SM FEW250
     FM201700 23004KT P6SM FEW050
     FM210000 00000KT P6SM FEW250=

USA.gov is the U.S. government's official web portal to all federal, state and local government web resources and services.